Weather at Helsinki Vantaa Airport

Public forecast

Using degrees Celsius for public forecast. Weather courtesy of forecast.io.

Current aviation weather report (METAR) for Helsinki Vantaa Airport

Retrieved 2021/05/11 19:50 UTC (14 minutes ago):

EFHK 111950Z 10005KT CAVOK 16/07 Q1017 NOSIG

Aviation forecast (TAF) for Helsinki Vantaa Airport

Retrieved 2021/05/11 18:42 UTC (1 hour ago):

TAF TAF EFHK 111739Z 1118/1218 12008KT CAVOK